CheckWX is a tool to help pilots better visualize weather data.  It is not intended as a substitute for an official pre-flight weather briefing.

17:35:47 UTC

06D METAR
Rolla Municipal Airport
Rolla, North Dakota, USA
Current

21 mins ago

K06D 211715Z AUTO 00000KT 10SM SCT026 SCT033 19/13 A3026 RMK AO2
Observed
Jul-21 @ 17:15 UTC
Visibility
10 SM
Flight Rules
VFR
Cloud Levels
  • Scattered at 2,600' AGL
  • Scattered at 3,300' AGL
Temperature
19°C / 66°F
Dewpoint
13°C / 55°F
Humidity
68%
Altimeter
30.26" Hg
Pressure
1024.72 hPa
Previous

41 mins ago

K06D 211655Z AUTO VRB04KT 10SM FEW026 FEW110 19/13 A3026 RMK AO2
Observed
Jul-21 @ 16:55 UTC
Wind
  • Variable at 4 KTS
Visibility
10 SM
Flight Rules
VFR
Cloud Levels
  • Few at 2,600' AGL
  • Few at 11,000' AGL
Temperature
19°C / 66°F
Dewpoint
13°C / 55°F
Humidity
68%
Altimeter
30.26" Hg
Pressure
1024.72 hPa
Previous

1 hour ago

K06D 211635Z AUTO 00000KT 10SM FEW025 SCT110 19/12 A3026 RMK AO2
Observed
Jul-21 @ 16:35 UTC
Visibility
10 SM
Flight Rules
VFR
Cloud Levels
  • Few at 2,500' AGL
  • Scattered at 11,000' AGL
Temperature
19°C / 66°F
Dewpoint
12°C / 54°F
Humidity
64%
Altimeter
30.26" Hg
Pressure
1024.72 hPa